createdAt,value
2019-05-15T00:01:41.106Z,1.50
2019-05-15T00:04:11.775Z,1.87
2019-05-15T00:06:48.607Z,1.67
2019-05-15T00:09:20.990Z,2.07
2019-05-15T00:11:55.318Z,1.90
2019-05-15T00:14:28.815Z,1.57
2019-05-15T00:17:01.381Z,1.53
2019-05-15T00:19:33.753Z,1.60
2019-05-15T00:22:11.266Z,1.50
2019-05-15T00:24:43.838Z,1.70
2019-05-15T00:27:15.150Z,2.07
2019-05-15T00:29:49.251Z,1.80
2019-05-15T00:32:21.442Z,1.73
2019-05-15T00:34:58.155Z,1.73
2019-05-15T00:37:35.752Z,1.93
2019-05-15T00:40:09.713Z,2.17
2019-05-15T00:42:42.702Z,1.90
2019-05-15T00:45:13.880Z,2.10
2019-05-15T00:47:48.639Z,1.73
2019-05-15T00:50:19.891Z,1.80
2019-05-15T00:52:50.535Z,2.27
2019-05-15T00:55:24.998Z,1.60
2019-05-15T00:57:55.980Z,1.63
2019-05-15T01:00:59.190Z,1.70
2019-05-15T01:03:30.009Z,1.90
2019-05-15T01:06:00.860Z,1.90
2019-05-15T01:08:31.838Z,1.80
2019-05-15T01:11:04.327Z,1.40
2019-05-15T01:13:38.863Z,1.60
2019-05-15T01:16:09.814Z,1.70
2019-05-15T01:18:40.547Z,1.37
2019-05-15T01:21:11.395Z,1.70
2019-05-15T01:23:42.035Z,2.00
2019-05-15T01:26:12.963Z,1.60
2019-05-15T01:28:43.874Z,1.73
2019-05-15T01:31:18.909Z,2.13
2019-05-15T01:33:51.057Z,1.60
2019-05-15T01:36:23.456Z,1.60
2019-05-15T01:38:54.448Z,2.00
2019-05-15T01:41:25.328Z,1.70
2019-05-15T01:43:58.041Z,1.93
2019-05-15T01:46:28.707Z,2.37
2019-05-15T01:49:00.018Z,2.40
2019-05-15T01:51:31.023Z,1.97
2019-05-15T01:54:01.695Z,2.37
2019-05-15T01:56:32.434Z,1.70
2019-05-15T01:59:03.856Z,2.30
2019-05-15T02:01:34.952Z,2.03
2019-05-15T02:04:08.373Z,1.87
2019-05-15T02:06:39.315Z,2.30
2019-05-15T02:09:10.104Z,1.90
2019-05-15T02:11:40.952Z,1.97
2019-05-15T02:14:11.883Z,2.13
2019-05-15T02:16:42.660Z,2.20
2019-05-15T02:19:13.463Z,2.53
2019-05-15T02:21:44.826Z,1.90
2019-05-15T02:24:15.449Z,2.37
2019-05-15T02:26:48.220Z,2.17
2019-05-15T02:29:24.746Z,2.33
2019-05-15T02:31:51.448Z,2.03
2019-05-15T02:34:22.332Z,2.33
2019-05-15T02:36:53.093Z,2.00
2019-05-15T02:39:28.624Z,2.63
2019-05-15T02:41:59.494Z,2.00
2019-05-15T02:44:31.385Z,2.70
2019-05-15T02:47:02.184Z,2.40
2019-05-15T02:49:32.974Z,1.93
2019-05-15T02:52:03.776Z,2.30
2019-05-15T02:54:34.579Z,2.40
2019-05-15T02:57:05.393Z,2.07
2019-05-15T02:59:39.338Z,1.90
2019-05-15T03:02:10.472Z,2.47
2019-05-15T03:04:41.232Z,2.13
2019-05-15T03:07:11.865Z,2.00
2019-05-15T03:09:42.866Z,2.40
2019-05-15T03:12:19.556Z,2.47
2019-05-15T03:14:50.561Z,2.10
2019-05-15T03:17:21.259Z,2.83
2019-05-15T03:19:52.039Z,2.57
2019-05-15T03:22:22.672Z,3.17
2019-05-15T03:24:53.786Z,2.30
2019-05-15T03:27:24.386Z,2.10
2019-05-15T03:29:55.223Z,2.37
2019-05-15T03:32:35.818Z,2.23
2019-05-15T03:35:04.721Z,1.97
2019-05-15T03:37:33.850Z,1.93
2019-05-15T03:40:04.713Z,2.67
2019-05-15T03:42:35.535Z,2.30
2019-05-15T03:45:10.719Z,2.40
2019-05-15T03:47:41.501Z,2.20
2019-05-15T03:50:12.426Z,1.93
2019-05-15T03:52:43.375Z,2.83
2019-05-15T03:55:14.154Z,2.43
2019-05-15T03:57:49.895Z,2.30
2019-05-15T04:00:19.760Z,2.50
2019-05-15T04:02:50.566Z,2.60
2019-05-15T04:05:21.302Z,2.87
2019-05-15T04:07:59.782Z,2.73
2019-05-15T04:10:33.070Z,2.93
2019-05-15T04:13:09.357Z,2.57
2019-05-15T04:15:40.050Z,3.13
2019-05-15T04:18:10.805Z,2.00
2019-05-15T04:20:51.164Z,2.07
2019-05-15T04:23:23.979Z,2.07
2019-05-15T04:26:00.545Z,2.60
2019-05-15T04:28:32.510Z,3.00
2019-05-15T04:31:03.368Z,2.30
2019-05-15T04:33:34.527Z,2.53
2019-05-15T04:36:09.792Z,2.30
2019-05-15T04:38:39.666Z,2.30
2019-05-15T04:41:10.389Z,2.83
2019-05-15T04:43:45.190Z,2.50
2019-05-15T04:46:14.808Z,2.53
2019-05-15T04:48:50.223Z,2.07
2019-05-15T04:51:21.460Z,2.20
2019-05-15T04:53:58.470Z,2.50
2019-05-15T04:56:30.618Z,2.47
2019-05-15T04:59:10.090Z,2.30
2019-05-15T05:01:43.125Z,2.53
2019-05-15T05:04:18.837Z,2.73
2019-05-15T05:06:52.118Z,2.63
2019-05-15T05:09:23.408Z,3.10
2019-05-15T05:11:54.370Z,2.90
2019-05-15T05:14:28.544Z,2.63
2019-05-15T05:17:02.746Z,3.60
2019-05-15T05:19:35.239Z,3.43
2019-05-15T05:22:07.841Z,4.17
2019-05-15T05:24:38.608Z,3.93
2019-05-15T05:27:09.375Z,4.17
2019-05-15T05:29:40.458Z,2.93
2019-05-15T05:32:12.085Z,2.93
2019-05-15T05:34:43.014Z,3.10
2019-05-15T05:37:21.189Z,2.53
2019-05-15T05:39:55.110Z,2.70
2019-05-15T05:42:29.119Z,2.50
2019-05-15T05:45:03.553Z,3.07
2019-05-15T05:47:34.228Z,2.60
2019-05-15T05:50:04.943Z,3.20
2019-05-15T05:52:35.633Z,3.77
2019-05-15T05:55:08.747Z,2.40
2019-05-15T05:57:39.351Z,2.87
2019-05-15T06:00:10.328Z,2.97
2019-05-15T06:02:48.019Z,2.80
2019-05-15T06:05:13.536Z,2.87
2019-05-15T06:07:48.770Z,2.50
2019-05-15T06:10:25.246Z,2.60
2019-05-15T06:12:58.560Z,2.70
2019-05-15T06:15:28.618Z,2.70
2019-05-15T06:17:59.554Z,2.40
2019-05-15T06:20:30.559Z,2.40
2019-05-15T06:23:01.381Z,2.30
2019-05-15T06:25:32.854Z,2.53
2019-05-15T06:28:03.659Z,2.70
2019-05-15T06:30:38.416Z,3.20
2019-05-15T06:33:12.833Z,2.80
2019-05-15T06:35:41.473Z,2.60
2019-05-15T06:38:12.389Z,2.30
2019-05-15T06:40:43.090Z,2.67
2019-05-15T06:43:14.011Z,2.80
2019-05-15T06:45:44.631Z,2.60
2019-05-15T06:48:15.458Z,2.70
2019-05-15T06:50:48.618Z,2.73
2019-05-15T06:53:19.619Z,2.60
2019-05-15T06:55:50.598Z,3.00
2019-05-15T06:58:25.278Z,2.57
2019-05-15T07:00:59.306Z,2.87
2019-05-15T07:03:29.484Z,2.90
2019-05-15T07:06:02.164Z,2.93
2019-05-15T07:08:33.084Z,3.03
2019-05-15T07:11:08.522Z,2.90
2019-05-15T07:13:39.842Z,2.87
2019-05-15T07:16:10.700Z,2.47
2019-05-15T07:18:42.518Z,3.13
2019-05-15T07:21:13.626Z,2.83
2019-05-15T07:23:44.224Z,2.90
2019-05-15T07:26:20.332Z,2.57
2019-05-15T07:28:53.974Z,2.60
2019-05-15T07:31:25.156Z,2.40
2019-05-15T07:34:03.777Z,2.43
2019-05-15T07:36:39.123Z,2.93
2019-05-15T07:39:20.139Z,3.77
2019-05-15T07:41:50.954Z,2.80
2019-05-15T07:44:21.796Z,2.50
2019-05-15T07:46:52.445Z,2.90
2019-05-15T07:49:24.382Z,2.23
2019-05-15T07:51:55.064Z,2.73
2019-05-15T07:54:25.837Z,3.00
2019-05-15T07:57:00.343Z,2.63
2019-05-15T07:59:31.206Z,2.43
2019-05-15T08:02:04.926Z,2.50
2019-05-15T08:04:52.062Z,2.57
2019-05-15T08:07:28.865Z,2.57
2019-05-15T08:10:08.551Z,2.77
2019-05-15T08:12:41.019Z,2.60
2019-05-15T08:15:21.481Z,2.27
2019-05-15T08:18:08.506Z,2.23
2019-05-15T08:20:29.409Z,2.43
2019-05-15T08:23:08.343Z,2.87
2019-05-15T08:25:41.365Z,2.57
2019-05-15T08:28:22.146Z,2.10
2019-05-15T08:30:58.114Z,2.40
2019-05-15T08:34:12.005Z,2.33
2019-05-15T08:36:34.189Z,2.23
2019-05-15T08:39:10.423Z,2.33
2019-05-15T08:42:18.897Z,1.97
2019-05-15T08:44:54.518Z,2.17
2019-05-15T08:47:25.392Z,2.83
2019-05-15T08:50:00.686Z,2.20
2019-05-15T08:52:31.528Z,1.73
2019-05-15T08:55:02.317Z,2.33
2019-05-15T08:57:33.143Z,1.77
2019-05-15T09:00:09.258Z,1.63
2019-05-15T09:02:41.265Z,1.70
2019-05-15T09:05:18.593Z,2.03
2019-05-15T09:07:52.137Z,1.97
2019-05-15T09:10:22.890Z,1.87
2019-05-15T09:13:00.745Z,1.70
2019-05-15T09:15:31.594Z,2.07
2019-05-15T09:18:12.329Z,1.70
2019-05-15T09:20:38.405Z,2.07
2019-05-15T09:23:09.410Z,2.00
2019-05-15T09:25:42.256Z,1.83
2019-05-15T09:28:13.084Z,2.03
2019-05-15T09:30:48.267Z,2.17
2019-05-15T09:33:20.249Z,2.27
2019-05-15T09:35:51.359Z,2.00
2019-05-15T09:38:24.225Z,2.00
2019-05-15T09:40:58.518Z,2.23
2019-05-15T09:43:30.112Z,1.90
2019-05-15T09:46:09.698Z,2.03
2019-05-15T09:48:59.334Z,2.33
2019-05-15T09:51:25.430Z,2.90
2019-05-15T09:53:59.775Z,2.17
2019-05-15T09:56:30.656Z,2.27
2019-05-15T09:59:01.460Z,2.60
2019-05-15T10:01:39.461Z,2.20
2019-05-15T10:04:18.987Z,2.73
2019-05-15T10:06:50.702Z,2.33
2019-05-15T10:09:34.562Z,2.17
2019-05-15T10:12:09.244Z,2.40
2019-05-15T10:14:42.069Z,2.47
2019-05-15T10:17:18.409Z,2.50
2019-05-15T10:19:55.155Z,2.43
2019-05-15T10:22:28.248Z,3.73
2019-05-15T10:24:58.828Z,2.57
2019-05-15T10:27:29.631Z,3.07
2019-05-15T10:30:03.563Z,3.07
2019-05-15T10:32:34.537Z,2.97
2019-05-15T10:35:21.729Z,2.70
2019-05-15T10:37:38.975Z,3.10
2019-05-15T10:40:11.175Z,2.80
2019-05-15T10:42:42.076Z,2.60
2019-05-15T10:45:15.339Z,2.97
2019-05-15T10:47:49.738Z,2.30
2019-05-15T10:50:22.216Z,3.00
2019-05-15T10:52:59.418Z,2.53
2019-05-15T10:55:30.214Z,2.07
2019-05-15T10:58:06.006Z,2.10
2019-05-15T11:00:39.682Z,2.40
2019-05-15T11:03:14.572Z,2.47
2019-05-15T11:06:09.075Z,2.27
2019-05-15T11:08:50.688Z,2.23
2019-05-15T11:11:21.314Z,1.87
2019-05-15T11:13:52.017Z,1.87
2019-05-15T11:16:29.172Z,2.13
2019-05-15T11:19:05.146Z,2.10
2019-05-15T11:21:39.000Z,2.13
2019-05-15T11:24:14.256Z,2.50
2019-05-15T11:26:45.148Z,3.07
2019-05-15T11:29:17.382Z,2.60
2019-05-15T11:31:51.245Z,2.23
2019-05-15T11:34:21.881Z,2.23
2019-05-15T11:36:54.781Z,2.20
2019-05-15T11:39:25.416Z,2.23
2019-05-15T11:41:57.468Z,2.50
2019-05-15T11:44:54.913Z,2.03
2019-05-15T11:47:39.529Z,2.80
2019-05-15T11:50:13.509Z,2.30
2019-05-15T11:52:45.495Z,2.50
2019-05-15T11:55:17.355Z,2.27
2019-05-15T11:57:52.318Z,2.70
2019-05-15T12:00:30.329Z,2.57
2019-05-15T12:03:02.357Z,2.70
2019-05-15T12:05:33.135Z,3.20
2019-05-15T12:08:08.630Z,2.30
2019-05-15T12:10:45.174Z,2.50
2019-05-15T12:15:51.241Z,2.80
2019-05-15T12:18:22.771Z,2.60
2019-05-15T12:20:54.181Z,2.77
2019-05-15T12:23:25.142Z,2.70
2019-05-15T12:25:59.728Z,3.07
2019-05-15T12:31:10.947Z,3.03
2019-05-15T12:33:42.585Z,2.63
2019-05-15T12:36:40.962Z,3.10
2019-05-15T12:59:46.377Z,3.20
2019-05-15T13:02:18.730Z,3.43
2019-05-15T13:04:51.869Z,3.23
2019-05-15T13:07:28.613Z,3.07
2019-05-15T13:10:00.636Z,3.13
2019-05-15T13:12:31.494Z,3.57
2019-05-15T13:15:02.422Z,3.07
2019-05-15T13:17:33.969Z,3.10
2019-05-15T13:20:15.051Z,3.20
2019-05-15T13:25:23.410Z,3.27
2019-05-15T13:27:54.682Z,3.37
2019-05-15T13:30:25.544Z,3.17
2019-05-15T13:32:59.821Z,2.87
2019-05-15T13:35:33.003Z,3.57
2019-05-15T13:38:09.577Z,3.00
2019-05-15T13:40:42.801Z,3.50
2019-05-15T13:43:15.100Z,3.07
2019-05-15T13:45:48.916Z,3.30
2019-05-15T13:48:30.011Z,2.83
2019-05-15T13:50:58.930Z,3.37
2019-05-15T13:53:30.158Z,3.33
2019-05-15T13:56:03.381Z,3.70
2019-05-15T13:58:38.778Z,3.57
2019-05-15T14:01:19.487Z,3.33
2019-05-15T14:03:54.348Z,3.50
2019-05-15T14:06:25.346Z,4.10
2019-05-15T14:08:58.140Z,4.93
2019-05-15T14:11:34.345Z,3.73
2019-05-15T14:14:13.007Z,4.03
2019-05-15T14:16:43.998Z,4.43
2019-05-15T14:19:18.105Z,4.50
2019-05-15T14:21:54.599Z,4.07
2019-05-15T14:24:35.297Z,4.20
2019-05-15T14:27:08.684Z,3.83
2019-05-15T14:29:39.728Z,4.40
2019-05-15T14:32:12.051Z,3.50
2019-05-15T14:34:42.836Z,3.67
2019-05-15T14:37:15.299Z,3.80
2019-05-15T14:39:52.012Z,3.50
2019-05-15T14:42:22.900Z,3.87
2019-05-15T14:44:53.888Z,4.07
2019-05-15T14:47:26.373Z,4.10
2019-05-15T14:50:03.103Z,3.37
2019-05-15T14:52:38.566Z,3.27
2019-05-15T14:55:13.273Z,3.90
2019-05-15T14:57:44.482Z,4.20
2019-05-15T15:00:33.241Z,3.80
2019-05-15T15:03:06.207Z,4.13
2019-05-15T15:05:40.327Z,3.57
2019-05-15T15:08:24.916Z,4.43
2019-05-15T15:10:59.260Z,4.40
2019-05-15T15:13:30.604Z,3.93
2019-05-15T15:16:03.160Z,4.47
2019-05-15T15:18:34.336Z,4.50
2019-05-15T15:21:08.622Z,4.03
2019-05-15T15:23:43.157Z,4.13
2019-05-15T15:26:18.982Z,4.00
2019-05-15T15:29:03.019Z,4.10
2019-05-15T15:31:39.026Z,4.30
2019-05-15T15:34:13.123Z,4.70
2019-05-15T15:36:50.220Z,4.57
2019-05-15T15:39:27.961Z,4.00
2019-05-15T15:41:58.450Z,4.43
2019-05-15T15:44:40.404Z,3.70
2019-05-15T15:47:14.394Z,4.17
2019-05-15T15:49:45.143Z,3.37
2019-05-15T15:52:19.291Z,3.80
2019-05-15T15:54:50.070Z,4.20
2019-05-15T15:57:22.710Z,3.60
2019-05-15T15:59:55.645Z,4.43
2019-05-15T16:02:33.586Z,4.33
2019-05-15T16:05:08.127Z,3.43
2019-05-15T16:07:48.511Z,5.00
2019-05-15T16:10:19.260Z,4.07
2019-05-15T16:12:53.954Z,4.00
2019-05-15T16:15:26.004Z,4.13
2019-05-15T16:17:59.869Z,3.10
2019-05-15T16:20:32.235Z,3.57
2019-05-15T16:23:03.493Z,4.37
2019-05-15T16:25:38.492Z,4.10
2019-05-15T16:28:09.469Z,3.80
2019-05-15T16:30:51.122Z,5.37
2019-05-15T16:33:14.209Z,4.37
2019-05-15T16:35:45.083Z,4.03
2019-05-15T16:38:20.377Z,3.30
2019-05-15T16:40:51.019Z,3.33
2019-05-15T16:43:23.033Z,4.00
2019-05-15T16:45:55.374Z,4.17
2019-05-15T16:48:29.368Z,3.97
2019-05-15T16:50:59.918Z,4.23
2019-05-15T16:53:32.338Z,3.97
2019-05-15T16:56:03.011Z,4.57
2019-05-15T16:58:42.285Z,3.77
2019-05-15T17:01:18.474Z,4.20
2019-05-15T17:03:51.762Z,4.10
2019-05-15T17:06:28.165Z,3.83
2019-05-15T17:09:19.980Z,4.03
2019-05-15T17:11:45.264Z,3.53
2019-05-15T17:14:20.717Z,4.13
2019-05-15T17:16:59.728Z,3.97
2019-05-15T17:19:35.155Z,4.00
2019-05-15T17:22:09.519Z,4.30
2019-05-15T17:24:40.210Z,3.80
2019-05-15T17:27:23.207Z,4.13
2019-05-15T17:29:58.280Z,3.70
2019-05-15T17:32:30.286Z,4.80
2019-05-15T17:35:03.741Z,4.50
2019-05-15T17:37:38.025Z,5.07
2019-05-15T17:40:08.815Z,4.50
2019-05-15T17:42:41.923Z,4.60
2019-05-15T17:45:22.708Z,5.03
2019-05-15T17:47:58.501Z,4.83
2019-05-15T17:50:47.897Z,5.23
2019-05-15T17:53:18.278Z,4.80
2019-05-15T17:58:54.333Z,5.30
2019-05-15T18:01:28.368Z,5.40
2019-05-15T18:04:02.408Z,5.27
2019-05-15T18:06:34.229Z,4.43
2019-05-15T18:09:13.429Z,4.87
2019-05-15T18:11:44.652Z,5.33
2019-05-15T18:14:23.070Z,5.37
2019-05-15T18:16:54.694Z,5.03
2019-05-15T18:19:27.001Z,5.70
2019-05-15T18:22:20.746Z,5.33
2019-05-15T18:25:22.996Z,4.67
2019-05-15T18:27:59.424Z,4.63
2019-05-15T18:30:38.954Z,5.23
2019-05-15T18:33:09.522Z,5.50
2019-05-15T18:35:48.626Z,5.17
2019-05-15T18:38:19.121Z,5.03
2019-05-15T18:40:50.140Z,5.50
2019-05-15T18:43:22.828Z,4.73
2019-05-15T18:45:59.897Z,5.40
2019-05-15T18:48:48.554Z,4.60
2019-05-15T18:51:39.284Z,5.20
2019-05-15T18:54:20.873Z,5.57
2019-05-15T18:56:58.281Z,4.40
2019-05-15T18:59:43.021Z,5.40
2019-05-15T19:02:19.065Z,6.30
2019-05-15T19:04:50.865Z,5.33
2019-05-15T19:07:25.749Z,5.93
2019-05-15T19:09:59.619Z,5.70
2019-05-15T19:12:38.953Z,5.13
2019-05-15T19:15:11.987Z,5.40
2019-05-15T19:17:47.832Z,6.00
2019-05-15T19:20:20.666Z,5.43
2019-05-15T19:22:55.434Z,5.67
2019-05-15T19:25:29.403Z,5.47
2019-05-15T19:28:01.790Z,5.23
2019-05-15T19:30:33.577Z,5.90
2019-05-15T19:33:12.675Z,6.17
2019-05-15T19:35:47.752Z,5.83
2019-05-15T19:38:22.126Z,6.27
2019-05-15T19:40:54.353Z,6.10
2019-05-15T19:43:25.297Z,6.50
2019-05-15T19:46:01.097Z,5.77
2019-05-15T19:48:31.948Z,5.13
2019-05-15T19:51:05.436Z,5.40
2019-05-15T19:53:38.401Z,5.53
2019-05-15T19:56:19.643Z,5.67
2019-05-15T19:58:50.669Z,6.07
2019-05-15T20:01:28.119Z,6.20
2019-05-15T20:04:03.343Z,5.50
2019-05-15T20:06:44.484Z,5.90
2019-05-15T20:09:39.079Z,5.47
2019-05-15T20:12:14.532Z,6.10
2019-05-15T20:14:48.846Z,6.90
2019-05-15T20:17:22.209Z,6.37
2019-05-15T20:19:58.073Z,5.87
2019-05-15T20:22:29.052Z,6.23
2019-05-15T20:24:59.909Z,6.60
2019-05-15T20:27:33.867Z,7.07
2019-05-15T20:30:05.197Z,6.43
2019-05-15T20:32:38.802Z,7.20
2019-05-15T20:35:10.676Z,6.27
2019-05-15T20:37:44.010Z,7.67
2019-05-15T20:40:18.644Z,6.77
2019-05-15T20:42:52.526Z,6.20
2019-05-15T20:45:31.178Z,5.87
2019-05-15T20:48:08.984Z,6.37
2019-05-15T20:50:41.971Z,6.50
2019-05-15T20:53:18.139Z,6.63
2019-05-15T20:55:50.775Z,7.30
2019-05-15T20:58:25.079Z,5.70
2019-05-15T21:01:00.952Z,6.90
2019-05-15T21:03:38.125Z,6.50
2019-05-15T21:06:12.526Z,6.03
2019-05-15T21:08:49.699Z,5.80
2019-05-15T21:11:22.499Z,6.00
2019-05-15T21:14:00.777Z,5.90
2019-05-15T21:16:40.951Z,5.83
2019-05-15T21:19:19.458Z,7.07
2019-05-15T21:22:14.100Z,6.17
2019-05-15T21:25:03.029Z,6.10
2019-05-15T21:27:41.194Z,5.87
2019-05-15T21:30:11.471Z,5.90
2019-05-15T21:32:42.393Z,6.03
2019-05-15T21:35:14.494Z,5.80
2019-05-15T21:37:53.614Z,6.50
2019-05-15T21:40:29.256Z,5.73
2019-05-15T21:43:03.333Z,5.73
2019-05-15T21:45:34.212Z,6.07
2019-05-15T21:48:09.070Z,6.20
2019-05-15T21:50:40.252Z,5.67
2019-05-15T21:53:13.292Z,6.10
2019-05-15T21:55:51.495Z,6.63
2019-05-15T21:58:28.270Z,5.57
2019-05-15T22:01:01.305Z,5.57
2019-05-15T22:03:34.210Z,6.30
2019-05-15T22:06:05.036Z,5.63
2019-05-15T22:08:38.292Z,6.33
2019-05-15T22:11:09.832Z,6.07
2019-05-15T22:13:41.902Z,6.43
2019-05-15T22:16:12.881Z,6.57
2019-05-15T22:18:43.916Z,6.43
2019-05-15T22:21:18.458Z,6.77
2019-05-15T22:23:49.999Z,6.53
2019-05-15T22:26:21.523Z,6.23
2019-05-15T22:28:52.542Z,6.67
2019-05-15T22:31:26.348Z,6.10
2019-05-15T22:33:58.924Z,6.13
2019-05-15T22:36:29.686Z,6.27
2019-05-15T22:39:00.522Z,7.07
2019-05-15T22:41:39.666Z,6.17
2019-05-15T22:44:18.978Z,5.87
2019-05-15T22:46:52.781Z,5.67
2019-05-15T22:49:23.643Z,6.60
2019-05-15T22:51:58.138Z,6.13
2019-05-15T22:54:30.603Z,5.90
2019-05-15T22:57:06.522Z,6.33
2019-05-15T22:59:38.440Z,6.03
2019-05-15T23:02:09.361Z,6.23
2019-05-15T23:04:40.056Z,5.90
2019-05-15T23:07:12.555Z,6.00
2019-05-15T23:09:43.569Z,6.00
2019-05-15T23:12:14.202Z,6.33
2019-05-15T23:14:48.525Z,5.87
2019-05-15T23:17:20.419Z,6.40
2019-05-15T23:19:52.421Z,6.10
2019-05-15T23:22:23.254Z,6.10
2019-05-15T23:24:54.311Z,5.37
2019-05-15T23:27:24.949Z,6.00
2019-05-15T23:29:59.029Z,6.00
2019-05-15T23:32:29.668Z,5.67
2019-05-15T23:35:00.469Z,6.37
2019-05-15T23:37:39.127Z,5.90
2019-05-15T23:40:13.487Z,6.80
2019-05-15T23:42:48.859Z,5.50
2019-05-15T23:45:19.051Z,6.27
2019-05-15T23:47:51.201Z,5.53
2019-05-15T23:50:22.268Z,5.87
2019-05-15T23:52:58.423Z,5.30
2019-05-15T23:55:33.349Z,5.10
2019-05-15T23:58:08.835Z,5.43
